sensor_id;sensor_type;location;lat;lon;timestamp;temperature;humidity
24384;DHT22;12504;52.870;8.798;2023-12-20T00:01:05;5.60;99.90
24384;DHT22;12504;52.870;8.798;2023-12-20T00:03:31;5.60;99.90
24384;DHT22;12504;52.870;8.798;2023-12-20T00:05:57;5.60;99.90
24384;DHT22;12504;52.870;8.798;2023-12-20T00:08:23;5.60;99.90
24384;DHT22;12504;52.870;8.798;2023-12-20T00:10:49;5.50;99.90
24384;DHT22;12504;52.870;8.798;2023-12-20T00:13:14;5.50;99.90
24384;DHT22;12504;52.870;8.798;2023-12-20T00:15:40;5.50;99.90
24384;DHT22;12504;52.870;8.798;2023-12-20T00:18:06;5.50;99.90
24384;DHT22;12504;52.870;8.798;2023-12-20T00:20:31;5.40;99.90
24384;DHT22;12504;52.870;8.798;2023-12-20T00:22:57;5.50;99.90
24384;DHT22;12504;52.870;8.798;2023-12-20T00:25:24;5.40;99.90
24384;DHT22;12504;52.870;8.798;2023-12-20T00:27:50;5.40;99.90
24384;DHT22;12504;52.870;8.798;2023-12-20T00:30:16;5.40;99.90
24384;DHT22;12504;52.870;8.798;2023-12-20T00:32:41;5.40;99.90
24384;DHT22;12504;52.870;8.798;2023-12-20T00:35:16;5.30;99.90
24384;DHT22;12504;52.870;8.798;2023-12-20T00:37:45;5.30;99.90
24384;DHT22;12504;52.870;8.798;2023-12-20T00:40:11;5.30;99.90
24384;DHT22;12504;52.870;8.798;2023-12-20T00:42:36;5.30;99.90
24384;DHT22;12504;52.870;8.798;2023-12-20T00:45:02;5.20;99.90
24384;DHT22;12504;52.870;8.798;2023-12-20T00:47:32;5.20;99.90
24384;DHT22;12504;52.870;8.798;2023-12-20T00:49:58;5.20;99.90
24384;DHT22;12504;52.870;8.798;2023-12-20T00:52:24;5.30;99.90
24384;DHT22;12504;52.870;8.798;2023-12-20T00:54:51;5.20;99.90
24384;DHT22;12504;52.870;8.798;2023-12-20T00:57:23;5.20;99.90
24384;DHT22;12504;52.870;8.798;2023-12-20T00:59:49;5.30;99.90
24384;DHT22;12504;52.870;8.798;2023-12-20T01:02:15;5.30;99.90
24384;DHT22;12504;52.870;8.798;2023-12-20T01:04:40;5.30;99.90
24384;DHT22;12504;52.870;8.798;2023-12-20T01:07:08;5.20;99.90
24384;DHT22;12504;52.870;8.798;2023-12-20T01:09:34;5.20;99.90
24384;DHT22;12504;52.870;8.798;2023-12-20T01:12:00;5.20;99.90
24384;DHT22;12504;52.870;8.798;2023-12-20T01:14:25;5.20;99.90
24384;DHT22;12504;52.870;8.798;2023-12-20T01:16:51;5.20;99.90
24384;DHT22;12504;52.870;8.798;2023-12-20T01:19:17;5.20;99.90
24384;DHT22;12504;52.870;8.798;2023-12-20T01:21:42;5.20;99.90
24384;DHT22;12504;52.870;8.798;2023-12-20T01:24:08;5.10;99.90
24384;DHT22;12504;52.870;8.798;2023-12-20T01:26:35;5.10;99.90
24384;DHT22;12504;52.870;8.798;2023-12-20T01:29:00;5.10;99.90
24384;DHT22;12504;52.870;8.798;2023-12-20T01:31:26;5.10;99.90
24384;DHT22;12504;52.870;8.798;2023-12-20T01:33:54;5.10;99.90
24384;DHT22;12504;52.870;8.798;2023-12-20T01:36:20;5.10;99.90
24384;DHT22;12504;52.870;8.798;2023-12-20T01:38:46;5.10;99.90
24384;DHT22;12504;52.870;8.798;2023-12-20T01:41:11;5.10;99.90
24384;DHT22;12504;52.870;8.798;2023-12-20T01:43:37;5.00;99.90
24384;DHT22;12504;52.870;8.798;2023-12-20T01:46:03;5.10;99.90
24384;DHT22;12504;52.870;8.798;2023-12-20T01:48:29;5.10;99.90
24384;DHT22;12504;52.870;8.798;2023-12-20T01:50:59;5.10;99.90
24384;DHT22;12504;52.870;8.798;2023-12-20T01:53:25;5.10;99.90
24384;DHT22;12504;52.870;8.798;2023-12-20T01:55:52;5.10;99.90
24384;DHT22;12504;52.870;8.798;2023-12-20T01:58:20;5.00;99.90
24384;DHT22;12504;52.870;8.798;2023-12-20T02:00:46;5.00;99.90
24384;DHT22;12504;52.870;8.798;2023-12-20T02:03:12;5.00;99.90
24384;DHT22;12504;52.870;8.798;2023-12-20T02:05:38;5.00;99.90
24384;DHT22;12504;52.870;8.798;2023-12-20T02:08:04;4.90;99.90
24384;DHT22;12504;52.870;8.798;2023-12-20T02:10:31;4.90;99.90
24384;DHT22;12504;52.870;8.798;2023-12-20T02:12:57;4.90;99.90
24384;DHT22;12504;52.870;8.798;2023-12-20T02:15:23;4.90;99.90
24384;DHT22;12504;52.870;8.798;2023-12-20T02:17:49;4.90;99.90
24384;DHT22;12504;52.870;8.798;2023-12-20T02:20:15;4.90;99.90
24384;DHT22;12504;52.870;8.798;2023-12-20T02:22:43;4.80;99.90
24384;DHT22;12504;52.870;8.798;2023-12-20T02:25:08;4.90;99.90
24384;DHT22;12504;52.870;8.798;2023-12-20T02:27:34;4.80;99.90
24384;DHT22;12504;52.870;8.798;2023-12-20T02:30:00;4.90;99.90
24384;DHT22;12504;52.870;8.798;2023-12-20T02:32:26;4.80;99.90
24384;DHT22;12504;52.870;8.798;2023-12-20T02:34:52;4.80;99.90
24384;DHT22;12504;52.870;8.798;2023-12-20T02:37:17;4.80;99.90
24384;DHT22;12504;52.870;8.798;2023-12-20T02:39:43;4.80;99.90
24384;DHT22;12504;52.870;8.798;2023-12-20T02:42:09;4.80;99.90
24384;DHT22;12504;52.870;8.798;2023-12-20T02:44:34;4.70;99.90
24384;DHT22;12504;52.870;8.798;2023-12-20T02:47:00;4.70;99.90
24384;DHT22;12504;52.870;8.798;2023-12-20T02:49:26;4.80;99.90
24384;DHT22;12504;52.870;8.798;2023-12-20T02:51:51;4.80;99.90
24384;DHT22;12504;52.870;8.798;2023-12-20T02:54:17;4.90;99.90
24384;DHT22;12504;52.870;8.798;2023-12-20T02:56:43;4.90;99.90
24384;DHT22;12504;52.870;8.798;2023-12-20T02:59:08;4.90;99.90
24384;DHT22;12504;52.870;8.798;2023-12-20T03:01:34;4.90;99.90
24384;DHT22;12504;52.870;8.798;2023-12-20T03:04:01;4.90;99.90
24384;DHT22;12504;52.870;8.798;2023-12-20T03:06:26;4.90;99.90
24384;DHT22;12504;52.870;8.798;2023-12-20T03:08:52;4.90;99.90
24384;DHT22;12504;52.870;8.798;2023-12-20T03:11:18;4.90;99.90
24384;DHT22;12504;52.870;8.798;2023-12-20T03:13:44;4.90;99.90
24384;DHT22;12504;52.870;8.798;2023-12-20T03:16:10;5.00;99.90
24384;DHT22;12504;52.870;8.798;2023-12-20T03:18:36;5.00;99.90
24384;DHT22;12504;52.870;8.798;2023-12-20T03:21:02;5.00;99.90
24384;DHT22;12504;52.870;8.798;2023-12-20T03:23:34;5.00;99.90
24384;DHT22;12504;52.870;8.798;2023-12-20T03:26:00;5.10;99.90
24384;DHT22;12504;52.870;8.798;2023-12-20T03:28:26;5.10;99.90
24384;DHT22;12504;52.870;8.798;2023-12-20T03:30:52;5.10;99.90
24384;DHT22;12504;52.870;8.798;2023-12-20T03:33:18;5.10;99.90
24384;DHT22;12504;52.870;8.798;2023-12-20T03:35:43;5.20;99.90
24384;DHT22;12504;52.870;8.798;2023-12-20T03:38:09;5.20;99.90
24384;DHT22;12504;52.870;8.798;2023-12-20T03:40:35;5.20;99.90
24384;DHT22;12504;52.870;8.798;2023-12-20T03:43:04;5.20;99.90
24384;DHT22;12504;52.870;8.798;2023-12-20T03:45:29;5.30;99.90
24384;DHT22;12504;52.870;8.798;2023-12-20T03:47:55;5.30;99.90
24384;DHT22;12504;52.870;8.798;2023-12-20T03:50:26;5.30;99.90
24384;DHT22;12504;52.870;8.798;2023-12-20T03:52:52;5.40;99.90
24384;DHT22;12504;52.870;8.798;2023-12-20T03:55:18;5.40;99.90
24384;DHT22;12504;52.870;8.798;2023-12-20T03:57:47;5.40;99.90
24384;DHT22;12504;52.870;8.798;2023-12-20T04:00:13;5.40;99.90
24384;DHT22;12504;52.870;8.798;2023-12-20T04:02:39;5.40;99.90
24384;DHT22;12504;52.870;8.798;2023-12-20T04:05:08;5.50;99.90
24384;DHT22;12504;52.870;8.798;2023-12-20T04:07:35;5.40;99.90
24384;DHT22;12504;52.870;8.798;2023-12-20T04:10:04;5.50;99.90
24384;DHT22;12504;52.870;8.798;2023-12-20T04:12:36;5.50;99.90
24384;DHT22;12504;52.870;8.798;2023-12-20T04:15:02;5.50;99.90
24384;DHT22;12504;52.870;8.798;2023-12-20T04:17:34;5.60;99.90
24384;DHT22;12504;52.870;8.798;2023-12-20T04:20:00;5.60;99.90
24384;DHT22;12504;52.870;8.798;2023-12-20T04:22:25;5.60;99.90
24384;DHT22;12504;52.870;8.798;2023-12-20T04:24:51;5.60;99.90
24384;DHT22;12504;52.870;8.798;2023-12-20T04:27:17;5.60;99.90
24384;DHT22;12504;52.870;8.798;2023-12-20T04:29:42;5.60;99.90
24384;DHT22;12504;52.870;8.798;2023-12-20T04:32:08;5.60;99.90
24384;DHT22;12504;52.870;8.798;2023-12-20T04:34:33;5.60;99.90
24384;DHT22;12504;52.870;8.798;2023-12-20T04:37:00;5.60;99.90
24384;DHT22;12504;52.870;8.798;2023-12-20T04:39:29;5.60;99.90
24384;DHT22;12504;52.870;8.798;2023-12-20T04:41:55;5.60;99.90
24384;DHT22;12504;52.870;8.798;2023-12-20T04:44:20;5.60;99.90
24384;DHT22;12504;52.870;8.798;2023-12-20T04:46:49;5.60;99.90
24384;DHT22;12504;52.870;8.798;2023-12-20T04:49:15;5.70;99.90
24384;DHT22;12504;52.870;8.798;2023-12-20T04:51:40;5.70;99.90
24384;DHT22;12504;52.870;8.798;2023-12-20T04:54:09;5.70;99.90
24384;DHT22;12504;52.870;8.798;2023-12-20T04:56:36;5.70;99.90
24384;DHT22;12504;52.870;8.798;2023-12-20T04:59:02;5.70;99.90
24384;DHT22;12504;52.870;8.798;2023-12-20T05:01:28;5.70;99.90
24384;DHT22;12504;52.870;8.798;2023-12-20T05:03:53;5.70;99.90
24384;DHT22;12504;52.870;8.798;2023-12-20T05:06:19;5.70;99.90
24384;DHT22;12504;52.870;8.798;2023-12-20T05:08:48;5.80;99.90
24384;DHT22;12504;52.870;8.798;2023-12-20T05:11:13;5.80;99.90
24384;DHT22;12504;52.870;8.798;2023-12-20T05:13:40;5.80;99.90
24384;DHT22;12504;52.870;8.798;2023-12-20T05:16:06;5.80;99.90
24384;DHT22;12504;52.870;8.798;2023-12-20T05:18:32;5.80;99.90
24384;DHT22;12504;52.870;8.798;2023-12-20T05:20:58;5.80;99.90
24384;DHT22;12504;52.870;8.798;2023-12-20T05:23:23;5.80;99.90
24384;DHT22;12504;52.870;8.798;2023-12-20T05:25:49;5.80;99.90
24384;DHT22;12504;52.870;8.798;2023-12-20T05:28:17;5.80;99.90
24384;DHT22;12504;52.870;8.798;2023-12-20T05:30:43;5.90;99.90
24384;DHT22;12504;52.870;8.798;2023-12-20T05:33:08;5.90;99.90
24384;DHT22;12504;52.870;8.798;2023-12-20T05:35:34;5.90;99.90
24384;DHT22;12504;52.870;8.798;2023-12-20T05:38:00;5.90;99.90
24384;DHT22;12504;52.870;8.798;2023-12-20T05:40:26;5.90;99.90
24384;DHT22;12504;52.870;8.798;2023-12-20T05:42:54;5.90;99.90
24384;DHT22;12504;52.870;8.798;2023-12-20T05:45:24;5.90;99.90
24384;DHT22;12504;52.870;8.798;2023-12-20T05:47:50;5.80;99.90
24384;DHT22;12504;52.870;8.798;2023-12-20T05:50:15;5.80;99.90
24384;DHT22;12504;52.870;8.798;2023-12-20T05:52:41;5.80;99.90
24384;DHT22;12504;52.870;8.798;2023-12-20T05:55:07;5.80;99.90
24384;DHT22;12504;52.870;8.798;2023-12-20T05:57:33;5.70;99.90
24384;DHT22;12504;52.870;8.798;2023-12-20T05:59:58;5.80;99.90
24384;DHT22;12504;52.870;8.798;2023-12-20T06:02:24;5.70;99.90
24384;DHT22;12504;52.870;8.798;2023-12-20T06:04:49;5.70;99.90
24384;DHT22;12504;52.870;8.798;2023-12-20T06:07:16;5.70;99.90
24384;DHT22;12504;52.870;8.798;2023-12-20T06:09:42;5.70;99.90
24384;DHT22;12504;52.870;8.798;2023-12-20T06:12:08;5.70;99.90
24384;DHT22;12504;52.870;8.798;2023-12-20T06:14:34;5.70;99.90
24384;DHT22;12504;52.870;8.798;2023-12-20T06:17:00;5.70;99.90
24384;DHT22;12504;52.870;8.798;2023-12-20T06:19:26;5.70;99.90
24384;DHT22;12504;52.870;8.798;2023-12-20T06:21:52;5.70;99.90
24384;DHT22;12504;52.870;8.798;2023-12-20T06:24:18;5.70;99.90
24384;DHT22;12504;52.870;8.798;2023-12-20T06:26:43;5.70;99.90
24384;DHT22;12504;52.870;8.798;2023-12-20T06:29:09;5.70;99.90
24384;DHT22;12504;52.870;8.798;2023-12-20T06:31:35;5.70;99.90
24384;DHT22;12504;52.870;8.798;2023-12-20T06:34:00;5.70;99.90
24384;DHT22;12504;52.870;8.798;2023-12-20T06:36:26;5.70;99.90
24384;DHT22;12504;52.870;8.798;2023-12-20T06:38:52;5.80;99.90
24384;DHT22;12504;52.870;8.798;2023-12-20T06:41:18;5.70;99.90
24384;DHT22;12504;52.870;8.798;2023-12-20T06:43:43;5.80;99.90
24384;DHT22;12504;52.870;8.798;2023-12-20T06:46:09;5.80;99.90
24384;DHT22;12504;52.870;8.798;2023-12-20T06:48:35;5.80;99.90
24384;DHT22;12504;52.870;8.798;2023-12-20T06:51:01;5.80;99.90
24384;DHT22;12504;52.870;8.798;2023-12-20T06:53:27;5.80;99.90
24384;DHT22;12504;52.870;8.798;2023-12-20T06:55:53;5.80;99.90
24384;DHT22;12504;52.870;8.798;2023-12-20T06:58:19;5.80;99.90
24384;DHT22;12504;52.870;8.798;2023-12-20T07:00:44;5.90;99.90
24384;DHT22;12504;52.870;8.798;2023-12-20T07:03:10;5.90;99.90
24384;DHT22;12504;52.870;8.798;2023-12-20T07:05:35;5.90;99.90
24384;DHT22;12504;52.870;8.798;2023-12-20T07:08:01;5.90;99.90
24384;DHT22;12504;52.870;8.798;2023-12-20T07:10:27;5.90;99.90
24384;DHT22;12504;52.870;8.798;2023-12-20T07:12:52;5.90;99.90
24384;DHT22;12504;52.870;8.798;2023-12-20T07:15:21;5.90;99.90
24384;DHT22;12504;52.870;8.798;2023-12-20T07:17:47;5.90;99.90
24384;DHT22;12504;52.870;8.798;2023-12-20T07:20:13;5.90;99.90
24384;DHT22;12504;52.870;8.798;2023-12-20T07:22:47;5.90;99.90
24384;DHT22;12504;52.870;8.798;2023-12-20T07:25:13;6.00;99.90
24384;DHT22;12504;52.870;8.798;2023-12-20T07:27:38;6.00;99.90
24384;DHT22;12504;52.870;8.798;2023-12-20T07:30:04;6.00;99.90
24384;DHT22;12504;52.870;8.798;2023-12-20T07:32:30;6.00;99.90
24384;DHT22;12504;52.870;8.798;2023-12-20T07:34:56;6.00;99.90
24384;DHT22;12504;52.870;8.798;2023-12-20T07:37:22;6.00;99.90
24384;DHT22;12504;52.870;8.798;2023-12-20T07:39:47;6.00;99.90
24384;DHT22;12504;52.870;8.798;2023-12-20T07:42:13;6.10;99.90
24384;DHT22;12504;52.870;8.798;2023-12-20T07:44:38;6.10;99.90
24384;DHT22;12504;52.870;8.798;2023-12-20T07:47:04;6.10;99.90
24384;DHT22;12504;52.870;8.798;2023-12-20T07:49:33;6.10;99.90
24384;DHT22;12504;52.870;8.798;2023-12-20T07:51:58;6.20;99.90
24384;DHT22;12504;52.870;8.798;2023-12-20T07:54:24;6.20;99.90
24384;DHT22;12504;52.870;8.798;2023-12-20T07:56:50;6.20;99.90
24384;DHT22;12504;52.870;8.798;2023-12-20T07:59:16;6.10;99.90
24384;DHT22;12504;52.870;8.798;2023-12-20T08:01:41;6.20;99.90
24384;DHT22;12504;52.870;8.798;2023-12-20T08:04:08;6.20;99.90
24384;DHT22;12504;52.870;8.798;2023-12-20T08:06:33;6.10;99.90
24384;DHT22;12504;52.870;8.798;2023-12-20T08:08:59;6.10;99.90
24384;DHT22;12504;52.870;8.798;2023-12-20T08:11:24;6.10;99.90
24384;DHT22;12504;52.870;8.798;2023-12-20T08:13:50;6.10;99.90
24384;DHT22;12504;52.870;8.798;2023-12-20T08:16:16;6.20;99.90
24384;DHT22;12504;52.870;8.798;2023-12-20T08:18:43;6.20;99.90
24384;DHT22;12504;52.870;8.798;2023-12-20T08:21:09;6.20;99.90
24384;DHT22;12504;52.870;8.798;2023-12-20T08:23:34;6.20;99.90
24384;DHT22;12504;52.870;8.798;2023-12-20T08:26:07;6.20;99.90
24384;DHT22;12504;52.870;8.798;2023-12-20T08:28:33;6.20;99.90
24384;DHT22;12504;52.870;8.798;2023-12-20T08:30:59;6.30;99.90
24384;DHT22;12504;52.870;8.798;2023-12-20T08:33:25;6.30;99.90
24384;DHT22;12504;52.870;8.798;2023-12-20T08:35:52;6.30;99.90
24384;DHT22;12504;52.870;8.798;2023-12-20T08:38:20;6.40;99.90
24384;DHT22;12504;52.870;8.798;2023-12-20T08:40:46;6.40;99.90
24384;DHT22;12504;52.870;8.798;2023-12-20T08:43:12;6.40;99.90
24384;DHT22;12504;52.870;8.798;2023-12-20T08:45:38;6.40;99.90
24384;DHT22;12504;52.870;8.798;2023-12-20T08:48:05;6.40;99.90
24384;DHT22;12504;52.870;8.798;2023-12-20T08:50:31;6.40;99.90
24384;DHT22;12504;52.870;8.798;2023-12-20T08:52:56;6.40;99.90
24384;DHT22;12504;52.870;8.798;2023-12-20T08:55:22;6.40;99.90
24384;DHT22;12504;52.870;8.798;2023-12-20T08:57:48;6.40;99.90
24384;DHT22;12504;52.870;8.798;2023-12-20T09:00:14;6.40;99.90
24384;DHT22;12504;52.870;8.798;2023-12-20T09:02:40;6.40;99.90
24384;DHT22;12504;52.870;8.798;2023-12-20T09:05:06;6.30;99.90
24384;DHT22;12504;52.870;8.798;2023-12-20T09:07:32;6.40;99.90
24384;DHT22;12504;52.870;8.798;2023-12-20T09:09:58;6.40;99.90
24384;DHT22;12504;52.870;8.798;2023-12-20T09:12:24;6.40;99.90
24384;DHT22;12504;52.870;8.798;2023-12-20T09:14:51;6.50;99.90
24384;DHT22;12504;52.870;8.798;2023-12-20T09:17:17;6.50;99.90
24384;DHT22;12504;52.870;8.798;2023-12-20T09:19:43;6.50;99.90
24384;DHT22;12504;52.870;8.798;2023-12-20T09:22:10;6.50;99.90
24384;DHT22;12504;52.870;8.798;2023-12-20T09:24:36;6.50;99.90
24384;DHT22;12504;52.870;8.798;2023-12-20T09:27:02;6.50;99.90
24384;DHT22;12504;52.870;8.798;2023-12-20T09:29:28;6.40;99.90
24384;DHT22;12504;52.870;8.798;2023-12-20T09:31:54;6.40;99.90
24384;DHT22;12504;52.870;8.798;2023-12-20T09:34:19;6.40;99.90
24384;DHT22;12504;52.870;8.798;2023-12-20T09:36:45;6.40;99.90
24384;DHT22;12504;52.870;8.798;2023-12-20T09:39:16;6.40;99.90
24384;DHT22;12504;52.870;8.798;2023-12-20T09:41:51;6.40;99.90
24384;DHT22;12504;52.870;8.798;2023-12-20T09:44:19;6.40;99.90
24384;DHT22;12504;52.870;8.798;2023-12-20T09:46:45;6.50;99.90
24384;DHT22;12504;52.870;8.798;2023-12-20T09:49:17;6.50;99.90
24384;DHT22;12504;52.870;8.798;2023-12-20T09:51:45;6.50;99.90
24384;DHT22;12504;52.870;8.798;2023-12-20T09:54:16;6.40;99.90
24384;DHT22;12504;52.870;8.798;2023-12-20T09:56:42;6.50;99.90
24384;DHT22;12504;52.870;8.798;2023-12-20T09:59:07;6.40;99.90
24384;DHT22;12504;52.870;8.798;2023-12-20T10:01:35;6.50;99.90
24384;DHT22;12504;52.870;8.798;2023-12-20T10:04:05;6.50;99.90
24384;DHT22;12504;52.870;8.798;2023-12-20T10:06:52;6.50;99.90
24384;DHT22;12504;52.870;8.798;2023-12-20T10:09:18;6.50;99.90
24384;DHT22;12504;52.870;8.798;2023-12-20T10:11:43;6.60;99.90
24384;DHT22;12504;52.870;8.798;2023-12-20T10:14:10;6.60;99.90
24384;DHT22;12504;52.870;8.798;2023-12-20T10:16:36;6.60;99.90
24384;DHT22;12504;52.870;8.798;2023-12-20T10:19:02;6.50;99.90
24384;DHT22;12504;52.870;8.798;2023-12-20T10:21:28;6.50;99.90
24384;DHT22;12504;52.870;8.798;2023-12-20T10:23:57;6.50;99.90
24384;DHT22;12504;52.870;8.798;2023-12-20T10:26:26;6.50;99.90
24384;DHT22;12504;52.870;8.798;2023-12-20T10:29:00;6.20;99.90
24384;DHT22;12504;52.870;8.798;2023-12-20T10:31:31;5.70;99.90
24384;DHT22;12504;52.870;8.798;2023-12-20T10:33:57;5.50;99.90
24384;DHT22;12504;52.870;8.798;2023-12-20T10:36:25;5.40;99.90
24384;DHT22;12504;52.870;8.798;2023-12-20T10:38:53;5.40;99.90
24384;DHT22;12504;52.870;8.798;2023-12-20T10:41:31;5.50;99.90
24384;DHT22;12504;52.870;8.798;2023-12-20T10:44:00;5.60;99.90
24384;DHT22;12504;52.870;8.798;2023-12-20T10:46:30;5.70;99.90
24384;DHT22;12504;52.870;8.798;2023-12-20T10:48:57;5.60;99.90
24384;DHT22;12504;52.870;8.798;2023-12-20T10:51:23;5.70;99.90
24384;DHT22;12504;52.870;8.798;2023-12-20T10:53:53;5.70;99.90
24384;DHT22;12504;52.870;8.798;2023-12-20T10:56:20;5.70;99.90
24384;DHT22;12504;52.870;8.798;2023-12-20T10:58:49;5.70;99.90
24384;DHT22;12504;52.870;8.798;2023-12-20T11:01:16;5.80;99.90
24384;DHT22;12504;52.870;8.798;2023-12-20T11:03:48;5.80;99.90
24384;DHT22;12504;52.870;8.798;2023-12-20T11:09:24;5.80;99.90
24384;DHT22;12504;52.870;8.798;2023-12-20T11:14:46;5.80;99.90
24384;DHT22;12504;52.870;8.798;2023-12-20T11:17:12;5.90;99.90
24384;DHT22;12504;52.870;8.798;2023-12-20T11:22:29;5.90;99.90
24384;DHT22;12504;52.870;8.798;2023-12-20T11:24:59;5.90;99.90
24384;DHT22;12504;52.870;8.798;2023-12-20T11:27:28;5.90;99.90
24384;DHT22;12504;52.870;8.798;2023-12-20T11:29:58;6.00;99.90
24384;DHT22;12504;52.870;8.798;2023-12-20T11:35:01;7.80;99.90
24384;DHT22;12504;52.870;8.798;2023-12-20T11:37:41;8.60;99.90
24384;DHT22;12504;52.870;8.798;2023-12-20T11:40:17;9.30;99.90
24384;DHT22;12504;52.870;8.798;2023-12-20T11:42:49;9.60;99.90
24384;DHT22;12504;52.870;8.798;2023-12-20T11:45:18;9.50;99.90
24384;DHT22;12504;52.870;8.798;2023-12-20T11:47:48;9.40;99.90
24384;DHT22;12504;52.870;8.798;2023-12-20T11:50:19;9.50;99.90
24384;DHT22;12504;52.870;8.798;2023-12-20T11:52:45;9.40;99.90
24384;DHT22;12504;52.870;8.798;2023-12-20T11:55:11;9.50;99.90
24384;DHT22;12504;52.870;8.798;2023-12-20T11:57:38;9.70;99.90
24384;DHT22;12504;52.870;8.798;2023-12-20T12:00:04;10.10;99.90
24384;DHT22;12504;52.870;8.798;2023-12-20T12:02:37;10.00;99.90
24384;DHT22;12504;52.870;8.798;2023-12-20T12:05:03;9.80;99.90
24384;DHT22;12504;52.870;8.798;2023-12-20T12:07:33;9.60;99.90
24384;DHT22;12504;52.870;8.798;2023-12-20T12:09:58;9.20;99.90
24384;DHT22;12504;52.870;8.798;2023-12-20T12:12:24;9.10;99.90
24384;DHT22;12504;52.870;8.798;2023-12-20T12:14:54;8.90;99.90
24384;DHT22;12504;52.870;8.798;2023-12-20T12:17:20;8.70;99.90
24384;DHT22;12504;52.870;8.798;2023-12-20T12:19:46;8.50;99.90
24384;DHT22;12504;52.870;8.798;2023-12-20T12:22:14;8.40;99.90
24384;DHT22;12504;52.870;8.798;2023-12-20T12:24:41;8.10;99.90
24384;DHT22;12504;52.870;8.798;2023-12-20T12:27:07;8.00;99.90
24384;DHT22;12504;52.870;8.798;2023-12-20T12:29:34;7.80;99.90
24384;DHT22;12504;52.870;8.798;2023-12-20T12:32:00;7.60;99.90
24384;DHT22;12504;52.870;8.798;2023-12-20T12:34:30;7.40;99.90
24384;DHT22;12504;52.870;8.798;2023-12-20T12:37:00;7.10;99.90
24384;DHT22;12504;52.870;8.798;2023-12-20T12:39:26;6.90;99.90
24384;DHT22;12504;52.870;8.798;2023-12-20T12:41:52;6.80;99.90
24384;DHT22;12504;52.870;8.798;2023-12-20T12:44:18;6.60;99.90
24384;DHT22;12504;52.870;8.798;2023-12-20T12:46:48;6.60;99.90
24384;DHT22;12504;52.870;8.798;2023-12-20T12:49:16;6.50;99.90
24384;DHT22;12504;52.870;8.798;2023-12-20T12:51:42;6.50;99.90
24384;DHT22;12504;52.870;8.798;2023-12-20T12:54:09;6.50;99.90
24384;DHT22;12504;52.870;8.798;2023-12-20T12:56:35;6.50;99.90
24384;DHT22;12504;52.870;8.798;2023-12-20T12:59:01;6.60;99.90
24384;DHT22;12504;52.870;8.798;2023-12-20T13:01:28;6.50;99.90
24384;DHT22;12504;52.870;8.798;2023-12-20T13:03:54;6.50;99.90
24384;DHT22;12504;52.870;8.798;2023-12-20T13:06:20;6.40;99.90
24384;DHT22;12504;52.870;8.798;2023-12-20T13:08:45;6.40;99.90
24384;DHT22;12504;52.870;8.798;2023-12-20T13:11:11;6.40;99.90
24384;DHT22;12504;52.870;8.798;2023-12-20T13:13:37;6.40;99.90
24384;DHT22;12504;52.870;8.798;2023-12-20T13:16:02;6.50;99.90
24384;DHT22;12504;52.870;8.798;2023-12-20T13:18:28;6.50;99.90
24384;DHT22;12504;52.870;8.798;2023-12-20T13:21:01;6.50;99.90
24384;DHT22;12504;52.870;8.798;2023-12-20T13:23:30;6.50;99.90
24384;DHT22;12504;52.870;8.798;2023-12-20T13:25:56;6.50;99.90
24384;DHT22;12504;52.870;8.798;2023-12-20T13:28:22;6.40;99.90
24384;DHT22;12504;52.870;8.798;2023-12-20T13:30:47;6.30;99.90
24384;DHT22;12504;52.870;8.798;2023-12-20T13:33:13;6.20;99.90
24384;DHT22;12504;52.870;8.798;2023-12-20T13:35:39;6.20;99.90
24384;DHT22;12504;52.870;8.798;2023-12-20T13:38:04;6.10;99.90
24384;DHT22;12504;52.870;8.798;2023-12-20T13:40:34;6.10;99.90
24384;DHT22;12504;52.870;8.798;2023-12-20T13:42:59;6.10;99.90
24384;DHT22;12504;52.870;8.798;2023-12-20T13:45:25;6.00;99.90
24384;DHT22;12504;52.870;8.798;2023-12-20T13:47:51;6.00;99.90
24384;DHT22;12504;52.870;8.798;2023-12-20T13:50:17;6.10;99.90
24384;DHT22;12504;52.870;8.798;2023-12-20T13:52:42;6.00;99.90
24384;DHT22;12504;52.870;8.798;2023-12-20T13:55:09;6.10;99.90
24384;DHT22;12504;52.870;8.798;2023-12-20T13:57:35;6.00;99.90
24384;DHT22;12504;52.870;8.798;2023-12-20T14:00:04;6.10;99.90
24384;DHT22;12504;52.870;8.798;2023-12-20T14:02:32;6.10;99.90
24384;DHT22;12504;52.870;8.798;2023-12-20T14:04:58;6.10;99.90
24384;DHT22;12504;52.870;8.798;2023-12-20T14:07:24;6.10;99.90
24384;DHT22;12504;52.870;8.798;2023-12-20T14:09:49;6.10;99.90
24384;DHT22;12504;52.870;8.798;2023-12-20T14:12:15;6.20;99.90
24384;DHT22;12504;52.870;8.798;2023-12-20T14:14:40;6.20;99.90
24384;DHT22;12504;52.870;8.798;2023-12-20T14:17:06;6.20;99.90
24384;DHT22;12504;52.870;8.798;2023-12-20T14:19:32;6.10;99.90
24384;DHT22;12504;52.870;8.798;2023-12-20T14:21:58;6.10;99.90
24384;DHT22;12504;52.870;8.798;2023-12-20T14:24:27;6.10;99.90
24384;DHT22;12504;52.870;8.798;2023-12-20T14:26:53;6.10;99.90
24384;DHT22;12504;52.870;8.798;2023-12-20T14:29:18;6.10;99.90
24384;DHT22;12504;52.870;8.798;2023-12-20T14:31:44;6.10;99.90
24384;DHT22;12504;52.870;8.798;2023-12-20T14:34:09;6.10;99.90
24384;DHT22;12504;52.870;8.798;2023-12-20T14:36:35;6.10;99.90
24384;DHT22;12504;52.870;8.798;2023-12-20T14:39:01;6.10;99.90
24384;DHT22;12504;52.870;8.798;2023-12-20T14:41:28;6.10;99.90
24384;DHT22;12504;52.870;8.798;2023-12-20T14:43:54;6.10;99.90
24384;DHT22;12504;52.870;8.798;2023-12-20T14:46:20;6.10;99.90
24384;DHT22;12504;52.870;8.798;2023-12-20T14:48:49;6.10;99.90
24384;DHT22;12504;52.870;8.798;2023-12-20T14:51:19;6.10;99.90
24384;DHT22;12504;52.870;8.798;2023-12-20T14:53:44;6.10;99.90
24384;DHT22;12504;52.870;8.798;2023-12-20T14:56:12;6.10;99.90
24384;DHT22;12504;52.870;8.798;2023-12-20T14:58:38;6.10;99.90
24384;DHT22;12504;52.870;8.798;2023-12-20T15:01:03;6.10;99.90
24384;DHT22;12504;52.870;8.798;2023-12-20T15:03:29;6.10;99.90
24384;DHT22;12504;52.870;8.798;2023-12-20T15:05:55;6.10;99.90
24384;DHT22;12504;52.870;8.798;2023-12-20T15:08:24;6.10;99.90
24384;DHT22;12504;52.870;8.798;2023-12-20T15:10:50;6.10;99.90
24384;DHT22;12504;52.870;8.798;2023-12-20T15:13:16;6.10;99.90
24384;DHT22;12504;52.870;8.798;2023-12-20T15:15:42;6.10;99.90
24384;DHT22;12504;52.870;8.798;2023-12-20T15:18:11;6.10;99.90
24384;DHT22;12504;52.870;8.798;2023-12-20T15:20:36;6.10;99.90
24384;DHT22;12504;52.870;8.798;2023-12-20T15:23:02;6.00;99.90
24384;DHT22;12504;52.870;8.798;2023-12-20T15:25:33;6.00;99.90
24384;DHT22;12504;52.870;8.798;2023-12-20T15:27:59;5.90;99.90
24384;DHT22;12504;52.870;8.798;2023-12-20T15:30:24;5.90;99.90
24384;DHT22;12504;52.870;8.798;2023-12-20T15:32:53;5.80;99.90
24384;DHT22;12504;52.870;8.798;2023-12-20T15:35:18;5.80;99.90
24384;DHT22;12504;52.870;8.798;2023-12-20T15:37:44;5.80;99.90
24384;DHT22;12504;52.870;8.798;2023-12-20T15:40:10;5.80;99.90
24384;DHT22;12504;52.870;8.798;2023-12-20T15:42:37;5.80;99.90
24384;DHT22;12504;52.870;8.798;2023-12-20T15:45:04;5.70;99.90
24384;DHT22;12504;52.870;8.798;2023-12-20T15:47:30;5.70;99.90
24384;DHT22;12504;52.870;8.798;2023-12-20T15:49:56;5.70;99.90
24384;DHT22;12504;52.870;8.798;2023-12-20T15:52:21;5.70;99.90